createdAt,value
2022-11-02T00:02:21.543Z,14.30
2022-11-02T00:04:53.052Z,14.30
2022-11-02T00:07:24.046Z,14.30
2022-11-02T00:09:54.856Z,14.30
2022-11-02T00:12:22.388Z,14.20
2022-11-02T00:14:54.441Z,14.20
2022-11-02T00:17:26.191Z,14.10
2022-11-02T00:19:56.156Z,14.10
2022-11-02T00:22:26.154Z,14.10
2022-11-02T00:27:42.845Z,14.10
2022-11-02T00:30:16.726Z,14.10
2022-11-02T00:32:48.150Z,14.10
2022-11-02T00:35:17.445Z,14.00
2022-11-02T00:37:46.505Z,14.00
2022-11-02T00:40:17.473Z,14.00
2022-11-02T00:42:48.169Z,14.00
2022-11-02T00:45:25.149Z,13.90
2022-11-02T00:47:55.387Z,13.90
2022-11-02T00:50:26.425Z,13.90
2022-11-02T00:52:53.795Z,13.90
2022-11-02T00:55:24.452Z,13.90
2022-11-02T00:57:57.907Z,13.90
2022-11-02T01:00:28.971Z,14.00
2022-11-02T01:03:03.848Z,14.00
2022-11-02T01:05:36.916Z,14.10
2022-11-02T01:08:09.239Z,14.00
2022-11-02T01:10:36.491Z,13.90
2022-11-02T01:13:06.789Z,13.90
2022-11-02T01:15:36.429Z,13.80
2022-11-02T01:18:08.352Z,13.90
2022-11-02T01:20:39.043Z,13.90
2022-11-02T01:23:07.718Z,13.90
2022-11-02T01:25:35.484Z,13.90
2022-11-02T01:28:03.590Z,13.90
2022-11-02T01:30:33.766Z,13.90
2022-11-02T01:33:07.403Z,13.90
2022-11-02T01:35:38.668Z,13.90
2022-11-02T01:38:06.381Z,13.90
2022-11-02T01:40:50.164Z,13.90
2022-11-02T01:43:35.247Z,13.90
2022-11-02T01:46:13.799Z,13.80
2022-11-02T01:49:10.138Z,13.70
2022-11-02T01:51:50.607Z,13.60
2022-11-02T01:54:29.798Z,13.60
2022-11-02T01:57:04.788Z,13.60
2022-11-02T01:59:57.972Z,13.50
2022-11-02T02:02:30.780Z,13.50
2022-11-02T02:05:19.572Z,13.40
2022-11-02T02:07:51.011Z,13.40
2022-11-02T02:10:19.149Z,13.40
2022-11-02T02:16:04.020Z,13.20
2022-11-02T02:19:03.520Z,13.20
2022-11-02T02:22:05.343Z,13.10
2022-11-02T02:24:58.441Z,13.10
2022-11-02T02:27:55.673Z,13.00
2022-11-02T02:30:26.431Z,13.00
2022-11-02T02:33:07.372Z,12.90
2022-11-02T02:36:06.006Z,12.90
2022-11-02T02:39:03.973Z,12.90
2022-11-02T02:41:45.340Z,12.90
2022-11-02T02:44:33.557Z,12.90
2022-11-02T02:47:12.926Z,12.90
2022-11-02T02:49:57.289Z,12.90
2022-11-02T02:52:27.683Z,12.80
2022-11-02T02:54:59.909Z,12.80
2022-11-02T02:57:31.588Z,12.80
2022-11-02T03:00:00.191Z,12.70
2022-11-02T03:02:42.830Z,12.70
2022-11-02T03:05:32.902Z,12.70
2022-11-02T03:08:17.773Z,12.60
2022-11-02T03:11:16.094Z,12.60
2022-11-02T03:14:24.095Z,12.60
2022-11-02T03:17:11.477Z,12.60
2022-11-02T03:20:04.044Z,12.60
2022-11-02T03:23:13.556Z,12.50
2022-11-02T03:26:13.018Z,12.50
2022-11-02T03:29:03.999Z,12.50
2022-11-02T03:31:45.981Z,12.50
2022-11-02T03:34:28.159Z,12.50
2022-11-02T03:37:12.102Z,12.60
2022-11-02T03:39:51.111Z,12.60
2022-11-02T03:42:23.541Z,12.60
2022-11-02T03:45:24.846Z,12.60
2022-11-02T03:48:06.626Z,12.60
2022-11-02T03:53:51.548Z,12.70
2022-11-02T03:56:44.152Z,12.70
2022-11-02T03:59:15.819Z,12.70
2022-11-02T04:01:50.624Z,12.80
2022-11-02T04:04:24.027Z,12.80
2022-11-02T04:06:55.270Z,12.80
2022-11-02T04:09:26.062Z,12.80
2022-11-02T04:12:13.077Z,12.80
2022-11-02T04:14:43.344Z,12.80
2022-11-02T04:17:34.102Z,12.70
2022-11-02T04:20:07.163Z,12.80
2022-11-02T04:22:56.407Z,12.70
2022-11-02T04:25:27.428Z,12.60
2022-11-02T04:28:17.470Z,12.60
2022-11-02T04:31:03.040Z,12.60
2022-11-02T04:33:36.761Z,12.60
2022-11-02T04:36:11.823Z,12.60
2022-11-02T04:38:45.408Z,12.60
2022-11-02T04:41:43.041Z,12.70
2022-11-02T04:44:31.676Z,12.70
2022-11-02T04:47:26.093Z,12.70
2022-11-02T04:49:56.367Z,12.70
2022-11-02T04:52:28.357Z,12.60
2022-11-02T04:54:55.691Z,12.50
2022-11-02T04:57:27.916Z,12.30
2022-11-02T04:59:59.327Z,12.30
2022-11-02T05:02:27.892Z,12.30
2022-11-02T05:04:56.682Z,12.40
2022-11-02T05:07:29.936Z,12.30
2022-11-02T05:10:05.208Z,12.30
2022-11-02T05:12:38.092Z,12.30
2022-11-02T05:15:06.228Z,12.30
2022-11-02T05:17:33.837Z,12.30
2022-11-02T05:20:05.915Z,12.20
2022-11-02T05:22:33.763Z,12.20
2022-11-02T05:25:05.513Z,12.20
2022-11-02T05:27:34.873Z,12.20
2022-11-02T05:30:05.934Z,12.20
2022-11-02T05:32:35.744Z,12.10
2022-11-02T05:35:05.735Z,12.20
2022-11-02T05:37:34.769Z,12.30
2022-11-02T05:40:07.661Z,12.20
2022-11-02T05:42:38.047Z,12.30
2022-11-02T05:45:06.382Z,12.30
2022-11-02T05:47:38.241Z,12.30
2022-11-02T05:50:06.055Z,12.20
2022-11-02T05:52:37.615Z,12.10
2022-11-02T05:55:08.858Z,12.00
2022-11-02T05:57:39.127Z,11.90
2022-11-02T06:00:11.349Z,12.00
2022-11-02T06:03:02.521Z,12.00
2022-11-02T06:05:33.709Z,12.10
2022-11-02T06:08:04.995Z,12.10
2022-11-02T06:10:35.142Z,12.20
2022-11-02T06:13:06.979Z,12.20
2022-11-02T06:15:34.634Z,12.20
2022-11-02T06:18:01.816Z,12.20
2022-11-02T06:20:33.236Z,12.20
2022-11-02T06:23:05.368Z,12.20
2022-11-02T06:25:34.249Z,12.20
2022-11-02T06:28:04.113Z,12.10
2022-11-02T06:30:32.823Z,12.10
2022-11-02T06:33:07.376Z,12.10
2022-11-02T06:35:35.794Z,12.10
2022-11-02T06:38:03.824Z,12.10
2022-11-02T06:40:32.274Z,12.20
2022-11-02T06:43:15.921Z,12.10
2022-11-02T06:45:49.168Z,12.00
2022-11-02T06:48:20.354Z,12.00
2022-11-02T06:50:49.986Z,12.00
2022-11-02T06:53:20.965Z,11.90
2022-11-02T06:55:57.817Z,11.90
2022-11-02T06:58:28.308Z,11.80
2022-11-02T07:01:09.823Z,11.70
2022-11-02T07:03:37.816Z,11.60
2022-11-02T07:06:09.797Z,11.60
2022-11-02T07:08:42.580Z,11.50
2022-11-02T07:11:24.505Z,11.40
2022-11-02T07:13:53.411Z,11.30
2022-11-02T07:16:25.555Z,11.20
2022-11-02T07:18:53.054Z,11.20
2022-11-02T07:21:24.119Z,11.30
2022-11-02T07:23:53.305Z,11.40
2022-11-02T07:26:22.018Z,11.40
2022-11-02T07:28:56.738Z,11.30
2022-11-02T07:31:27.886Z,11.30
2022-11-02T07:33:57.006Z,11.20
2022-11-02T07:36:26.411Z,11.10
2022-11-02T07:38:56.204Z,11.10
2022-11-02T07:41:26.447Z,11.10
2022-11-02T07:43:55.903Z,11.20
2022-11-02T07:46:50.626Z,11.10
2022-11-02T07:49:21.440Z,11.10
2022-11-02T07:51:53.395Z,11.10
2022-11-02T07:54:26.621Z,11.10
2022-11-02T07:56:55.991Z,11.10
2022-11-02T07:59:23.869Z,11.20
2022-11-02T08:01:55.527Z,11.30
2022-11-02T08:04:27.452Z,11.50
2022-11-02T08:06:58.389Z,11.50
2022-11-02T08:09:26.927Z,11.50
2022-11-02T08:12:00.309Z,11.40
2022-11-02T08:14:28.884Z,11.40
2022-11-02T08:16:56.921Z,11.40
2022-11-02T08:19:29.975Z,11.50
2022-11-02T08:21:59.350Z,11.60
2022-11-02T08:24:26.899Z,11.60
2022-11-02T08:26:55.118Z,11.70
2022-11-02T08:29:22.997Z,11.70
2022-11-02T08:31:53.251Z,11.70
2022-11-02T08:34:24.832Z,11.80
2022-11-02T08:36:56.618Z,11.90
2022-11-02T08:39:32.501Z,12.10
2022-11-02T08:42:03.535Z,12.10
2022-11-02T08:44:34.531Z,12.20
2022-11-02T08:47:08.477Z,12.20
2022-11-02T08:49:37.978Z,12.30
2022-11-02T08:52:08.538Z,12.30
2022-11-02T08:54:36.237Z,12.40
2022-11-02T08:57:08.105Z,12.40
2022-11-02T08:59:38.615Z,12.50
2022-11-02T09:02:08.435Z,12.50
2022-11-02T09:04:40.585Z,12.60
2022-11-02T09:07:13.539Z,12.70
2022-11-02T09:09:43.235Z,12.80
2022-11-02T09:12:16.014Z,12.80
2022-11-02T09:14:47.363Z,12.90
2022-11-02T09:17:16.595Z,13.00
2022-11-02T09:19:48.038Z,13.10
2022-11-02T09:22:20.407Z,13.20
2022-11-02T09:24:49.974Z,13.30
2022-11-02T09:27:21.581Z,13.30
2022-11-02T09:29:50.224Z,13.30
2022-11-02T09:32:17.970Z,13.30
2022-11-02T09:34:47.541Z,13.20
2022-11-02T09:37:17.379Z,13.20
2022-11-02T09:39:48.003Z,13.20
2022-11-02T09:42:29.146Z,13.20
2022-11-02T09:45:11.422Z,13.10
2022-11-02T09:48:16.793Z,13.00
2022-11-02T09:51:02.095Z,13.00
2022-11-02T09:53:49.320Z,13.00
2022-11-02T09:56:22.621Z,12.90
2022-11-02T09:59:04.073Z,12.90
2022-11-02T10:02:26.143Z,13.00
2022-11-02T10:05:24.697Z,13.10
2022-11-02T10:08:30.075Z,13.10
2022-11-02T10:11:26.341Z,13.10
2022-11-02T10:14:31.647Z,13.20
2022-11-02T10:17:26.595Z,13.10
2022-11-02T10:19:57.178Z,12.90
2022-11-02T10:22:32.832Z,12.80
2022-11-02T10:25:06.379Z,12.80
2022-11-02T10:27:38.452Z,12.90
2022-11-02T10:30:22.739Z,12.90
2022-11-02T10:32:57.005Z,13.00
2022-11-02T10:38:55.783Z,12.90
2022-11-02T10:41:59.140Z,13.00
2022-11-02T10:44:52.120Z,13.00
2022-11-02T10:47:38.459Z,13.00
2022-11-02T10:50:54.530Z,13.10
2022-11-02T10:56:32.865Z,13.20
2022-11-02T10:59:01.024Z,13.20
2022-11-02T11:01:31.558Z,13.10
2022-11-02T11:04:04.285Z,13.20
2022-11-02T11:06:40.803Z,13.10
2022-11-02T11:09:21.564Z,13.10
2022-11-02T11:12:26.459Z,13.20
2022-11-02T11:21:06.753Z,13.20
2022-11-02T11:23:37.538Z,13.00
2022-11-02T11:26:15.593Z,12.90
2022-11-02T11:28:56.118Z,12.90
2022-11-02T11:31:42.124Z,13.00
2022-11-02T11:34:27.186Z,13.00
2022-11-02T11:37:08.827Z,13.00
2022-11-02T11:39:42.094Z,13.00
2022-11-02T11:42:31.384Z,13.10
2022-11-02T11:45:09.564Z,13.00
2022-11-02T11:47:41.808Z,12.90
2022-11-02T11:50:29.667Z,12.90
2022-11-02T11:53:28.408Z,12.90
2022-11-02T11:56:02.701Z,12.90
2022-11-02T11:58:34.618Z,12.90
2022-11-02T12:01:22.495Z,12.90
2022-11-02T12:04:03.348Z,13.00
2022-11-02T12:06:55.496Z,13.10
2022-11-02T12:09:50.468Z,13.10
2022-11-02T12:12:56.983Z,13.10
2022-11-02T12:16:04.072Z,13.20
2022-11-02T12:19:15.804Z,13.30
2022-11-02T12:25:30.388Z,13.30
2022-11-02T12:28:38.635Z,13.40
2022-11-02T12:31:41.009Z,13.40
2022-11-02T12:34:34.976Z,13.30
2022-11-02T12:37:40.518Z,13.30
2022-11-02T12:40:11.809Z,13.30
2022-11-02T12:43:24.970Z,13.30
2022-11-02T12:46:22.103Z,13.30
2022-11-02T12:49:24.923Z,13.20
2022-11-02T12:52:36.883Z,13.20
2022-11-02T12:55:28.121Z,13.20
2022-11-02T12:58:15.760Z,13.10
2022-11-02T13:00:48.161Z,13.10
2022-11-02T13:03:55.055Z,13.10
2022-11-02T13:06:50.857Z,13.20
2022-11-02T13:09:58.099Z,13.20
2022-11-02T13:12:31.377Z,13.20
2022-11-02T13:15:10.893Z,13.20
2022-11-02T13:17:59.276Z,13.20
2022-11-02T13:20:41.952Z,13.00
2022-11-02T13:26:57.604Z,13.10
2022-11-02T13:29:59.863Z,13.00
2022-11-02T13:32:43.905Z,13.10
2022-11-02T13:35:36.691Z,13.00
2022-11-02T13:41:37.704Z,13.10
2022-11-02T13:44:28.852Z,13.00
2022-11-02T13:47:31.519Z,13.00
2022-11-02T13:50:07.996Z,13.00
2022-11-02T13:53:09.116Z,13.10
2022-11-02T13:55:45.762Z,13.00
2022-11-02T13:58:39.022Z,13.00
2022-11-02T14:01:12.985Z,13.00
2022-11-02T14:04:16.938Z,13.10
2022-11-02T14:06:59.716Z,13.10
2022-11-02T14:09:53.699Z,13.00
2022-11-02T14:12:31.688Z,13.00
2022-11-02T14:15:22.487Z,12.90
2022-11-02T14:18:15.171Z,12.90
2022-11-02T14:20:51.096Z,12.90
2022-11-02T14:23:49.927Z,12.90
2022-11-02T14:26:35.161Z,12.90
2022-11-02T14:29:31.810Z,12.80
2022-11-02T14:32:14.516Z,12.90
2022-11-02T14:34:48.079Z,12.90
2022-11-02T14:37:49.122Z,12.90
2022-11-02T14:40:54.912Z,13.00
2022-11-02T14:44:02.595Z,13.00
2022-11-02T14:47:01.407Z,13.00
2022-11-02T14:49:36.726Z,13.00
2022-11-02T14:52:28.969Z,13.10
2022-11-02T14:55:28.918Z,13.00
2022-11-02T14:58:18.602Z,12.90
2022-11-02T15:01:06.311Z,12.90
2022-11-02T15:03:42.038Z,12.90
2022-11-02T15:06:29.576Z,13.00
2022-11-02T15:09:02.213Z,13.00
2022-11-02T15:11:46.526Z,13.00
2022-11-02T15:14:41.925Z,12.90
2022-11-02T15:17:21.843Z,12.90
2022-11-02T15:20:14.461Z,12.80
2022-11-02T15:22:49.679Z,12.80
2022-11-02T15:25:33.989Z,12.90
2022-11-02T15:28:20.575Z,12.80
2022-11-02T15:31:09.715Z,12.80
2022-11-02T15:33:48.860Z,12.80
2022-11-02T15:36:41.727Z,12.90
2022-11-02T15:39:19.923Z,12.90
2022-11-02T15:42:28.684Z,12.90
2022-11-02T15:45:56.850Z,12.80
2022-11-02T15:48:59.392Z,12.80
2022-11-02T15:52:06.135Z,12.80
2022-11-02T15:55:10.670Z,12.80
2022-11-02T15:58:08.126Z,12.90
2022-11-02T16:00:39.039Z,12.80
2022-11-02T16:03:12.867Z,12.80
2022-11-02T16:05:50.017Z,12.80
2022-11-02T16:11:34.560Z,12.80
2022-11-02T16:14:20.364Z,12.80
2022-11-02T16:16:52.428Z,12.80
2022-11-02T16:19:24.860Z,12.80
2022-11-02T16:21:55.955Z,12.80
2022-11-02T16:24:28.868Z,12.80
2022-11-02T16:26:58.342Z,12.80
2022-11-02T16:29:39.389Z,12.80
2022-11-02T16:32:12.377Z,12.80
2022-11-02T16:34:42.262Z,12.80
2022-11-02T16:37:20.060Z,12.80
2022-11-02T16:39:53.138Z,12.80
2022-11-02T16:42:26.468Z,12.70
2022-11-02T16:45:05.552Z,12.70
2022-11-02T16:47:51.223Z,12.80
2022-11-02T16:50:22.452Z,12.80
2022-11-02T16:53:02.405Z,12.80
2022-11-02T16:55:46.086Z,12.80
2022-11-02T16:58:24.247Z,12.80
2022-11-02T17:01:05.825Z,12.90
2022-11-02T17:03:39.293Z,12.90
2022-11-02T17:06:12.666Z,12.90
2022-11-02T17:08:44.798Z,12.90
2022-11-02T17:11:19.006Z,13.00
2022-11-02T17:14:02.647Z,13.00
2022-11-02T17:16:37.570Z,13.00
2022-11-02T17:19:06.174Z,13.00
2022-11-02T17:21:37.085Z,13.00
2022-11-02T17:24:31.973Z,13.10
2022-11-02T17:27:18.343Z,13.10
2022-11-02T17:29:48.072Z,13.10
2022-11-02T17:32:20.000Z,13.10
2022-11-02T17:34:58.994Z,13.10
2022-11-02T17:37:29.631Z,13.10
2022-11-02T17:40:02.242Z,13.10
2022-11-02T17:42:50.979Z,13.10
2022-11-02T17:45:43.875Z,13.10
2022-11-02T17:48:13.673Z,13.20
2022-11-02T17:50:44.411Z,13.10
2022-11-02T17:53:18.955Z,13.10
2022-11-02T17:55:47.625Z,13.10
2022-11-02T17:58:17.906Z,13.10
2022-11-02T18:00:49.773Z,13.10
2022-11-02T18:03:22.323Z,13.20
2022-11-02T18:05:54.611Z,13.20
2022-11-02T18:08:29.113Z,13.20
2022-11-02T18:10:57.784Z,13.20
2022-11-02T18:13:29.185Z,13.20
2022-11-02T18:15:59.940Z,13.20
2022-11-02T18:18:32.611Z,13.20
2022-11-02T18:23:47.410Z,13.30
2022-11-02T18:26:17.896Z,13.30
2022-11-02T18:28:46.811Z,13.30
2022-11-02T18:31:19.170Z,13.30
2022-11-02T18:33:49.767Z,13.30
2022-11-02T18:36:18.903Z,13.30
2022-11-02T18:38:49.879Z,13.30
2022-11-02T18:41:31.083Z,13.30
2022-11-02T18:44:05.741Z,13.20
2022-11-02T18:46:41.115Z,13.30
2022-11-02T18:49:12.166Z,13.20
2022-11-02T18:51:43.939Z,13.20
2022-11-02T18:54:15.688Z,13.20
2022-11-02T18:56:46.898Z,13.10
2022-11-02T18:59:14.916Z,13.10
2022-11-02T19:01:43.716Z,13.10
2022-11-02T19:04:17.210Z,13.10
2022-11-02T19:07:10.055Z,13.10
2022-11-02T19:09:46.688Z,13.00
2022-11-02T19:12:33.230Z,13.10
2022-11-02T19:15:02.957Z,13.10
2022-11-02T19:17:33.020Z,13.00
2022-11-02T19:20:03.202Z,13.00
2022-11-02T19:22:33.161Z,13.10
2022-11-02T19:25:05.125Z,13.10
2022-11-02T19:27:35.891Z,13.10
2022-11-02T19:30:05.394Z,12.90
2022-11-02T19:32:36.221Z,12.90
2022-11-02T19:35:04.928Z,12.90
2022-11-02T19:37:34.891Z,12.90
2022-11-02T19:40:03.819Z,13.00
2022-11-02T19:42:34.027Z,12.90
2022-11-02T19:45:04.223Z,12.80
2022-11-02T19:47:32.990Z,12.80
2022-11-02T19:50:02.131Z,12.80
2022-11-02T19:52:34.171Z,12.80
2022-11-02T19:55:04.257Z,12.90
2022-11-02T19:57:34.198Z,12.90
2022-11-02T20:00:05.235Z,12.80
2022-11-02T20:02:55.954Z,12.80
2022-11-02T20:05:27.435Z,12.80
2022-11-02T20:07:58.481Z,12.70
2022-11-02T20:10:28.051Z,12.70
2022-11-02T20:12:57.046Z,12.80
2022-11-02T20:15:25.656Z,12.80
2022-11-02T20:18:18.412Z,12.80
2022-11-02T20:20:48.977Z,12.80
2022-11-02T20:23:18.871Z,12.80
2022-11-02T20:25:47.273Z,12.80
2022-11-02T20:28:17.295Z,12.80
2022-11-02T20:30:46.763Z,12.80
2022-11-02T20:33:14.745Z,12.80
2022-11-02T20:35:47.937Z,12.80
2022-11-02T20:38:18.448Z,12.80
2022-11-02T20:40:49.287Z,12.90
2022-11-02T20:43:17.690Z,12.90
2022-11-02T20:45:47.314Z,12.80
2022-11-02T20:48:18.063Z,12.90
2022-11-02T20:50:46.785Z,12.90
2022-11-02T20:53:14.720Z,12.90
2022-11-02T20:55:45.706Z,12.90
2022-11-02T20:58:13.765Z,12.90
2022-11-02T21:00:44.678Z,13.00
2022-11-02T21:03:13.344Z,13.00
2022-11-02T21:05:46.152Z,13.00
2022-11-02T21:08:14.360Z,13.00
2022-11-02T21:10:44.185Z,13.00
2022-11-02T21:13:36.770Z,13.10
2022-11-02T21:16:05.237Z,13.00
2022-11-02T21:18:37.299Z,13.10
2022-11-02T21:21:09.033Z,13.10
2022-11-02T21:23:42.685Z,13.00
2022-11-02T21:26:13.418Z,13.00
2022-11-02T21:28:47.182Z,13.10
2022-11-02T21:31:22.554Z,12.90
2022-11-02T21:33:52.955Z,12.80
2022-11-02T21:36:20.894Z,12.70
2022-11-02T21:38:50.445Z,12.70
2022-11-02T21:41:20.727Z,12.80
2022-11-02T21:43:52.034Z,12.70
2022-11-02T21:46:20.140Z,12.70
2022-11-02T21:48:51.400Z,12.70
2022-11-02T21:51:24.172Z,12.70
2022-11-02T21:53:56.600Z,12.70
2022-11-02T21:56:29.793Z,12.70
2022-11-02T21:59:01.333Z,12.70
2022-11-02T22:01:50.436Z,12.70
2022-11-02T22:04:24.899Z,12.60
2022-11-02T22:06:53.063Z,12.60
2022-11-02T22:09:21.817Z,12.60
2022-11-02T22:12:13.560Z,12.60
2022-11-02T22:14:46.140Z,12.60
2022-11-02T22:17:35.431Z,12.70
2022-11-02T22:20:08.543Z,12.70
2022-11-02T22:22:36.826Z,12.70
2022-11-02T22:25:05.481Z,12.70
2022-11-02T22:27:33.032Z,12.70
2022-11-02T22:30:01.028Z,12.70
2022-11-02T22:32:32.229Z,12.70
2022-11-02T22:35:02.885Z,12.70
2022-11-02T22:37:52.637Z,12.80
2022-11-02T22:40:26.114Z,12.80
2022-11-02T22:42:55.069Z,12.80
2022-11-02T22:45:25.895Z,12.90
2022-11-02T22:47:56.354Z,12.80
2022-11-02T22:50:28.020Z,12.90
2022-11-02T22:52:56.532Z,12.90
2022-11-02T22:55:25.756Z,12.90
2022-11-02T22:57:59.770Z,12.80
2022-11-02T23:00:27.909Z,12.70
2022-11-02T23:02:59.554Z,12.70
2022-11-02T23:05:27.611Z,12.70
2022-11-02T23:07:54.865Z,12.70
2022-11-02T23:10:44.840Z,12.70
2022-11-02T23:13:15.589Z,12.80
2022-11-02T23:15:46.117Z,12.80
2022-11-02T23:18:16.565Z,12.80
2022-11-02T23:20:54.188Z,12.80
2022-11-02T23:23:43.830Z,12.90
2022-11-02T23:26:16.026Z,12.80
2022-11-02T23:29:14.624Z,12.80
2022-11-02T23:32:03.430Z,12.80
2022-11-02T23:34:32.086Z,12.90
2022-11-02T23:37:02.227Z,12.80
2022-11-02T23:39:48.134Z,12.80
2022-11-02T23:42:19.896Z,12.70
2022-11-02T23:44:48.359Z,12.70
2022-11-02T23:47:20.327Z,12.70
2022-11-02T23:49:51.414Z,12.70
2022-11-02T23:52:38.354Z,12.70
2022-11-02T23:55:32.339Z,12.70
2022-11-02T23:57:59.880Z,12.80
